Halfway's Hourly Summary for Friday, July 6, 2018
Hour Temp
(f)
RH
(%)
Solar Rad.
(MJ/m2)
Rainfall
(in)
Wind
(mph)
7/6/2018 12:00 AM 73 51 0 0 4.58
7/6/2018 1:00 AM 71 56 0 0 3.87
7/6/2018 2:00 AM 70 58 0 0 3.87
7/6/2018 3:00 AM 70 60 0 0 4.09
7/6/2018 4:00 AM 70 61 0 0 4.09
7/6/2018 5:00 AM 68 68 0 0 3.91
7/6/2018 6:00 AM 67 70 0 0 3.33
7/6/2018 7:00 AM 67 72 0.02 0 3.29
7/6/2018 8:00 AM 69 66 0.35 0 3.25
7/6/2018 9:00 AM 74 60 1.03 0 3.29
7/6/2018 10:00 AM 78 57 1.77 0 4.94
7/6/2018 11:00 AM 80 47 2.45 0 6.83
7/6/2018 12:00 PM 83 37 3.06 0 6.77
7/6/2018 1:00 PM 84 38 3.16 0 8.47
7/6/2018 2:00 PM 85 35 3.03 0 8.46
7/6/2018 3:00 PM 87 30 3.59 0 8.16
7/6/2018 4:00 PM 88 30 2.57 0 6.85
7/6/2018 5:00 PM 78 36 0.91 0.19 16.49
7/6/2018 6:00 PM 68 81 0.1 0.36 11.86
7/6/2018 7:00 PM 69 80 0.16 0.03 9.59
7/6/2018 8:00 PM 71 79 0.3 0 10.1
7/6/2018 9:00 PM 70 81 0.12 0 6.79
7/6/2018 10:00 PM 68 84 0 0 7.56
7/6/2018 11:00 PM 67 87 0 0 6.97
Data Summary 73 59 22.62 0.58 6.56